Time;durP1;ratioP1;P1;durP2;ratioP2;P2;SDS_P1;SDS_P2;PMS_P1;PMS_P2;Temp;Humidity;BMP_temperature;BMP_pressure;BME280_temperature;BME280_humidity;BME280_pressure;Samples;Min_cycle;Max_cycle;Signal;HPM_P1;HPM_P2
2022/04/08 00:02:24;;;;;;;0.00;0.00;;;;;;;12.21;94.01;96070.78;6096945;23;20495;-86
2022/04/08 00:04:49;;;;;;;1.17;1.17;;;;;;;12.25;93.01;96085.63;6096271;23;20086;-86
2022/04/08 00:07:15;;;;;;;0.00;0.00;;;;;;;12.30;92.89;96088.75;6096358;23;20483;-85
2022/04/08 00:09:40;;;;;;;0.00;0.00;;;;;;;12.32;94.66;96100.16;6096137;23;20006;-86
2022/04/08 00:12:07;;;;;;;0.00;0.00;;;;;;;12.25;95.28;96103.53;6096409;23;20036;-86
2022/04/08 00:14:33;;;;;;;0.00;0.00;;;;;;;12.32;94.82;96110.03;6095342;23;20005;-87
2022/04/08 00:16:58;;;;;;;0.52;0.52;;;;;;;12.36;92.17;96109.63;6095978;23;20016;-86
2022/04/08 00:19:24;;;;;;;0.00;0.00;;;;;;;12.40;93.98;96128.94;6121207;23;20077;-86
2022/04/08 00:21:50;;;;;;;0.00;0.00;;;;;;;12.29;94.30;96104.97;6096131;23;20010;-85
2022/04/08 00:24:17;;;;;;;0.00;0.00;;;;;;;12.33;92.92;96117.94;6095631;23;20048;-85
2022/04/08 00:26:45;;;;;;;0.10;0.10;;;;;;;12.36;94.18;96119.50;6096035;23;20033;-86
2022/04/08 00:29:12;;;;;;;0.00;0.00;;;;;;;12.24;92.78;96102.69;6096398;23;20002;-86
2022/04/08 00:31:38;;;;;;;0.20;0.20;;;;;;;12.20;90.36;96103.97;6096085;23;20029;-86
2022/04/08 00:34:03;;;;;;;1.85;1.75;;;;;;;12.33;84.07;96117.94;6096058;23;20006;-86
2022/04/08 00:36:29;;;;;;;0.20;0.20;;;;;;;12.38;82.69;96121.06;6095666;23;20311;-85
2022/04/08 00:38:54;;;;;;;0.00;0.00;;;;;;;12.39;82.73;96130.78;6095627;23;20008;-85
2022/04/08 00:41:20;;;;;;;0.00;0.00;;;;;;;12.40;81.72;96120.88;6096103;23;20019;-87
2022/04/08 00:43:45;;;;;;;0.17;0.17;;;;;;;12.33;82.26;96109.06;6096306;23;20006;-86
2022/04/08 00:46:11;;;;;;;0.20;0.20;;;;;;;12.43;81.52;96136.69;6095966;23;20010;-86
2022/04/08 00:48:37;;;;;;;0.55;0.55;;;;;;;12.30;81.25;96117.38;6095190;23;20009;-85
2022/04/08 00:51:05;;;;;;;0.00;0.00;;;;;;;12.34;81.27;96121.47;6119919;23;20002;-86
2022/04/08 00:53:31;;;;;;;0.70;0.70;;;;;;;12.27;80.74;96129.25;6096045;23;20006;-86
2022/04/08 00:55:57;;;;;;;1.67;1.35;;;;;;;12.32;80.62;96121.63;6096323;23;20033;-85
2022/04/08 00:58:24;;;;;;;0.10;0.10;;;;;;;12.24;81.06;96121.44;6095552;23;20438;-85
2022/04/08 01:00:49;;;;;;;2.13;0.55;;;;;;;12.29;79.69;96127.25;6096118;23;20013;-86
2022/04/08 01:03:15;;;;;;;0.65;0.55;;;;;;;12.31;78.83;96114.53;6096108;23;20010;-87
2022/04/08 01:05:41;;;;;;;0.00;0.00;;;;;;;12.36;79.72;96116.81;6095998;23;20517;-86
2022/04/08 01:08:10;;;;;;;0.55;0.55;;;;;;;12.20;79.73;96121.88;6096141;23;20010;-86
2022/04/08 01:10:36;;;;;;;1.33;1.23;;;;;;;12.24;79.30;96124.13;6096405;23;20006;-88
2022/04/08 01:13:02;;;;;;;0.00;0.00;;;;;;;12.17;79.53;96114.13;6095816;23;20013;-85
2022/04/08 01:15:28;;;;;;;0.00;0.00;;;;;;;12.00;79.48;96099.56;6119873;23;20010;-86
2022/04/08 01:17:54;;;;;;;0.45;0.45;;;;;;;12.06;79.61;96112.41;6095814;23;20044;-86
2022/04/08 01:20:19;;;;;;;3.63;1.45;;;;;;;12.19;78.27;96126.38;6095732;23;20001;-86
2022/04/08 01:22:45;;;;;;;0.28;0.28;;;;;;;12.10;78.01;96111.16;6096154;23;20013;-87
2022/04/08 01:25:11;;;;;;;0.00;0.00;;;;;;;12.02;78.78;96113.69;6095573;23;20014;-87
2022/04/08 01:27:38;;;;;;;1.27;0.80;;;;;;;12.14;79.07;96133.16;6095574;23;20040;-86
2022/04/08 01:30:05;;;;;;;0.20;0.20;;;;;;;12.02;78.62;96121.72;6094956;23;20017;-86
2022/04/08 01:32:30;;;;;;;0.95;0.90;;;;;;;12.18;77.45;96129.22;6095571;23;20006;-86
2022/04/08 01:34:59;;;;;;;0.10;0.10;;;;;;;12.23;76.60;96125.13;6095542;23;20028;-86
2022/04/08 01:37:31;;;;;;;0.40;0.40;;;;;;;12.36;75.73;96141.81;6096307;23;20012;-87
2022/04/08 01:39:56;;;;;;;0.13;0.10;;;;;;;12.31;76.19;96129.78;6095943;23;20076;-88
2022/04/08 01:42:25;;;;;;;0.13;0.13;;;;;;;12.19;75.29;96109.47;6095902;23;20010;-86
2022/04/08 01:44:54;;;;;;;0.00;0.00;;;;;;;12.41;75.74;96152.09;6120529;23;20445;-86
2022/04/08 01:47:34;;;;;;;0.28;0.28;;;;;;;12.26;75.36;96130.22;6096428;23;20012;-86
2022/04/08 01:50:00;;;;;;;0.30;0.30;;;;;;;12.23;75.15;96138.53;6097703;23;20006;-87
2022/04/08 01:52:29;;;;;;;0.00;0.00;;;;;;;12.07;75.47;96122.16;6097624;23;20006;-87
2022/04/08 01:54:54;;;;;;;0.00;0.00;;;;;;;12.15;75.89;96138.38;6096588;23;20014;-86
2022/04/08 01:57:23;;;;;;;0.00;0.00;;;;;;;12.09;75.96;96135.44;6097127;23;20492;-87
2022/04/08 01:59:50;;;;;;;0.35;0.35;;;;;;;11.91;76.60;96128.03;6097808;23;20009;-87
2022/04/08 02:02:17;;;;;;;0.22;0.22;;;;;;;12.01;75.65;96127.22;6098227;23;20480;-86
2022/04/08 02:04:42;;;;;;;0.10;0.10;;;;;;;12.14;74.50;96144.75;6096886;23;20006;-86
2022/04/08 02:07:08;;;;;;;0.00;0.00;;;;;;;12.10;75.42;96148.66;6095720;23;20400;-87
2022/04/08 02:09:34;;;;;;;0.00;0.00;;;;;;;12.15;75.58;96161.66;6120822;23;20021;-87
2022/04/08 02:12:25;;;;;;;0.10;0.10;;;;;;;12.06;76.18;96165.19;6096280;23;20530;-87
2022/04/08 02:14:51;;;;;;;0.93;0.35;;;;;;;12.14;75.06;96165.31;6120273;22;20063;-87
2022/04/08 02:17:17;;;;;;;0.45;0.45;;;;;;;12.10;74.03;96154.03;6096460;23;20006;-85
2022/04/08 02:19:45;;;;;;;0.20;0.20;;;;;;;12.20;74.13;96168.31;6097806;23;20006;-85
2022/04/08 02:22:11;;;;;;;0.00;0.00;;;;;;;12.05;73.25;96136.69;6098325;23;20017;-86
2022/04/08 02:24:39;;;;;;;0.10;0.10;;;;;;;12.08;74.18;96161.38;6098669;23;20438;-87
2022/04/08 02:27:06;;;;;;;0.10;0.10;;;;;;;11.94;73.21;96129.59;6098195;23;20033;-87
2022/04/08 02:29:33;;;;;;;0.10;0.10;;;;;;;12.02;73.15;96145.84;6097083;23;20081;-86
2022/04/08 02:31:59;;;;;;;0.20;0.20;;;;;;;12.08;72.15;96156.00;6096536;23;20327;-87
2022/04/08 02:34:25;;;;;;;0.38;0.32;;;;;;;12.13;73.36;96158.25;6097080;23;20020;-86
2022/04/08 02:36:50;;;;;;;0.20;0.20;;;;;;;12.01;72.76;96154.88;6120519;23;20012;-86
2022/04/08 02:39:17;;;;;;;0.15;0.15;;;;;;;12.07;72.78;96151.63;6121959;23;20009;-87
2022/04/08 02:41:43;;;;;;;4.03;1.30;;;;;;;12.04;72.77;96157.25;6097993;23;20408;-86
2022/04/08 02:44:11;;;;;;;0.55;0.28;;;;;;;12.09;72.84;96165.72;6121948;23;20006;-87
2022/04/08 02:46:37;;;;;;;0.00;0.00;;;;;;;12.15;72.20;96170.53;6097566;23;20013;-87
2022/04/08 02:49:02;;;;;;;0.90;0.13;;;;;;;11.97;72.16;96142.72;6096536;23;20006;-86
2022/04/08 02:51:28;;;;;;;0.22;0.22;;;;;;;12.04;72.14;96159.09;6123037;23;20357;-86
2022/04/08 02:54:13;;;;;;;;;;;;;;;;;;;;;
2022/04/08 02:56:41;;;;;;;0.30;0.15;;;;;;;11.97;71.47;96174.06;6121866;23;20081;-87
2022/04/08 02:59:06;;;;;;;0.30;0.30;;;;;;;12.14;70.74;96176.91;6097997;23;20073;-77
2022/04/08 03:01:32;;;;;;;0.43;0.43;;;;;;;12.16;71.18;96195.50;6120649;23;20002;-87
2022/04/08 03:03:57;;;;;;;0.82;0.68;;;;;;;12.17;71.33;96202.56;6096553;23;20017;-85
2022/04/08 03:06:23;;;;;;;0.35;0.22;;;;;;;12.18;71.51;96205.09;6096692;23;20067;-85
2022/04/08 03:08:49;;;;;;;0.32;0.28;;;;;;;12.02;71.75;96199.44;6121970;23;20009;-86
2022/04/08 03:11:14;;;;;;;0.60;0.60;;;;;;;12.08;71.14;96206.94;6120294;23;20005;-84
2022/04/08 03:13:40;;;;;;;0.22;0.22;;;;;;;12.05;71.31;96199.16;6096350;23;20081;-87
2022/04/08 03:16:05;;;;;;;0.10;0.10;;;;;;;12.04;71.16;96194.78;6096285;23;20009;-85
2022/04/08 03:18:31;;;;;;;5.53;1.45;;;;;;;12.07;69.80;96204.38;6095918;23;20055;-85
2022/04/08 03:20:56;;;;;;;0.43;0.32;;;;;;;12.25;69.02;96206.25;6120929;23;20366;-86
2022/04/08 03:23:22;;;;;;;1.38;0.82;;;;;;;12.20;68.90;96200.47;6096601;23;20147;-86
2022/04/08 03:25:48;;;;;;;0.52;0.52;;;;;;;12.18;69.65;96215.81;6121237;23;20002;-86
2022/04/08 03:28:13;;;;;;;0.80;0.50;;;;;;;12.11;68.90;96209.34;6095923;23;20516;-85
2022/04/08 03:30:40;;;;;;;0.00;0.00;;;;;;;11.97;69.63;96196.31;6096795;23;20426;-86
2022/04/08 03:33:07;;;;;;;0.30;0.30;;;;;;;12.09;69.07;96248.00;6096607;23;20009;-86
2022/04/08 03:35:38;;;;;;;0.00;0.00;;;;;;;11.97;69.76;96241.84;6096092;23;20029;-86
2022/04/08 03:38:04;;;;;;;1.25;1.00;;;;;;;11.84;69.24;96228.69;6122145;23;20010;-85
2022/04/08 03:40:31;;;;;;;0.00;0.00;;;;;;;11.84;69.17;96219.84;6096425;23;20075;-86
2022/04/08 03:42:56;;;;;;;0.10;0.10;;;;;;;11.82;68.94;96221.78;6097417;23;20394;-87
2022/04/08 03:45:22;;;;;;;0.88;0.40;;;;;;;11.87;69.16;96238.31;6097067;23;20036;-86
2022/04/08 03:47:48;;;;;;;0.10;0.10;;;;;;;12.09;68.07;96262.22;6096830;23;19998;-87
2022/04/08 03:50:14;;;;;;;1.40;0.93;;;;;;;11.95;67.94;96235.81;6096861;23;20013;-87
2022/04/08 03:52:39;;;;;;;1.33;0.90;;;;;;;12.07;66.58;96224.00;6097466;23;20036;-86
2022/04/08 03:55:06;;;;;;;0.65;0.50;;;;;;;12.12;65.46;96237.00;6097228;23;20014;-87
2022/04/08 03:57:31;;;;;;;0.75;0.52;;;;;;;12.22;65.95;96264.66;6096230;23;20010;-87
2022/04/08 04:00:20;;;;;;;0.10;0.10;;;;;;;12.28;65.99;96256.06;6097706;23;20100;-86
2022/04/08 04:02:50;;;;;;;1.02;0.70;;;;;;;12.34;65.34;96276.97;6121750;23;20450;-87
2022/04/08 04:05:15;;;;;;;0.30;0.30;;;;;;;12.24;65.49;96252.81;6097057;23;20006;-87
2022/04/08 04:07:41;;;;;;;0.00;0.00;;;;;;;12.24;66.21;96268.88;6096959;23;20072;-86
2022/04/08 04:10:07;;;;;;;1.15;0.75;;;;;;;12.26;65.45;96284.84;6096877;23;20016;-87
2022/04/08 04:12:33;;;;;;;0.00;0.00;;;;;;;12.23;66.49;96287.81;6097045;23;20400;-87
2022/04/08 04:14:58;;;;;;;0.00;0.00;;;;;;;12.01;66.15;96256.69;6097080;23;20077;-87
2022/04/08 04:17:27;;;;;;;0.40;0.40;;;;;;;12.22;65.77;96286.09;6096617;23;20017;-87
2022/04/08 04:19:52;;;;;;;0.10;0.10;;;;;;;12.23;65.32;96288.66;6096933;23;20013;-87
2022/04/08 04:22:18;;;;;;;0.57;0.47;;;;;;;12.25;65.29;96286.69;6096934;23;20005;-86
2022/04/08 04:24:43;;;;;;;0.55;0.50;;;;;;;12.40;64.45;96293.34;6097013;23;20010;-87
2022/04/08 04:27:09;;;;;;;0.50;0.50;;;;;;;12.47;63.83;96307.94;6096604;23;20036;-86
2022/04/08 04:29:35;;;;;;;0.10;0.10;;;;;;;12.46;64.08;96295.50;6096642;23;20002;-87
2022/04/08 04:32:03;;;;;;;0.20;0.10;;;;;;;12.56;63.56;96305.41;6097203;23;20013;-86
2022/04/08 04:34:29;;;;;;;0.35;0.32;;;;;;;12.50;63.72;96296.94;6097210;23;20006;-86
2022/04/08 04:36:54;;;;;;;0.00;0.00;;;;;;;12.61;63.28;96298.66;6121557;23;20021;-85
2022/04/08 04:39:20;;;;;;;0.00;0.00;;;;;;;12.70;62.66;96305.03;6096167;23;21612;-86
2022/04/08 04:41:45;;;;;;;0.00;0.00;;;;;;;12.72;62.18;96286.94;6096620;23;20486;-80
2022/04/08 04:44:24;;;;;;;0.40;0.40;;;;;;;12.91;61.39;96317.34;6123599;23;20006;-86
2022/04/08 04:46:50;;;;;;;0.00;0.00;;;;;;;12.99;61.73;96322.00;6122833;23;20135;-85
2022/04/08 04:49:16;;;;;;;0.00;0.00;;;;;;;13.11;61.23;96323.59;6097042;23;20097;-86
2022/04/08 04:51:41;;;;;;;0.88;0.85;;;;;;;13.34;60.04;96297.31;6100537;23;20029;-88
2022/04/08 05:00:51;;;;;;;0.00;0.00;;;;;;;14.74;54.63;96322.34;6123661;23;20009;-87
2022/04/08 05:03:17;;;;;;;0.03;0.03;;;;;;;14.97;53.35;96334.41;6097601;23;20014;-88
2022/04/08 05:05:42;;;;;;;0.00;0.00;;;;;;;15.09;53.08;96342.13;6098659;23;20002;-88
2022/04/08 05:08:08;;;;;;;0.35;0.35;;;;;;;15.26;52.63;96344.97;6099265;23;20006;-88
2022/04/08 05:10:34;;;;;;;0.00;0.00;;;;;;;15.41;52.22;96340.75;6098177;23;20006;-87
2022/04/08 05:13:00;;;;;;;0.00;0.00;;;;;;;15.68;51.22;96330.75;6098045;23;20002;-86
2022/04/08 05:15:26;;;;;;;0.13;0.13;;;;;;;15.94;50.16;96355.03;6096622;23;20492;-86
2022/04/08 05:17:53;;;;;;;0.10;0.10;;;;;;;15.70;50.56;96344.06;6096587;23;20020;-86
2022/04/08 05:20:18;;;;;;;0.00;0.00;;;;;;;15.77;51.62;96349.69;6097843;23;20068;-84
2022/04/08 05:22:44;;;;;;;0.52;0.40;;;;;;;15.91;49.92;96363.44;6098587;23;20010;-82
2022/04/08 05:25:10;;;;;;;0.57;0.43;;;;;;;15.67;50.07;96365.94;6101416;23;20016;-87
2022/04/08 05:27:37;;;;;;;0.10;0.05;;;;;;;15.84;49.54;96354.31;6100896;23;20036;-87
2022/04/08 05:30:18;;;;;;;1.00;0.22;;;;;;;16.99;47.26;96369.16;6101962;23;20139;-85
2022/04/08 05:32:47;;;;;;;0.00;0.00;;;;;;;18.28;45.53;96360.38;6103094;23;20467;-84
2022/04/08 05:35:16;;;;;;;0.95;0.75;;;;;;;19.41;42.37;96343.75;6099035;23;20032;-83
2022/04/08 05:37:47;;;;;;;0.00;0.00;;;;;;;20.51;40.47;96356.78;6098778;23;20010;-84
2022/04/08 05:40:14;;;;;;;0.10;0.10;;;;;;;21.22;39.65;96348.00;6122511;23;20084;-83
2022/04/08 05:42:49;;;;;;;0.03;0.03;;;;;;;21.35;38.77;96347.31;6098581;23;20006;-83
2022/04/08 05:45:18;;;;;;;0.00;0.00;;;;;;;21.88;37.32;96343.25;6106862;23;19994;-84
2022/04/08 05:47:47;;;;;;;2.63;1.00;;;;;;;23.11;34.97;96331.66;6098999;23;20013;-84
2022/04/08 05:50:13;;;;;;;0.00;0.00;;;;;;;23.02;35.47;96343.78;6098360;23;20002;-84
2022/04/08 05:52:39;;;;;;;0.98;0.75;;;;;;;22.94;34.76;96341.25;6096989;23;20001;-84
2022/04/08 05:55:06;;;;;;;0.38;0.20;;;;;;;22.67;35.00;96344.84;6123587;23;20353;-84
2022/04/08 05:57:36;;;;;;;0.60;0.57;;;;;;;22.99;34.33;96346.91;6123916;23;20364;-84
2022/04/08 06:00:03;;;;;;;2.53;0.93;;;;;;;22.82;34.74;96364.66;6098254;23;20017;-84
2022/04/08 06:02:28;;;;;;;0.17;0.17;;;;;;;21.98;36.23;96369.19;6097048;23;20010;-83
2022/04/08 06:04:54;;;;;;;2.00;0.63;;;;;;;22.38;35.57;96369.53;6098063;23;20010;-84
2022/04/08 06:07:23;;;;;;;0.15;0.15;;;;;;;22.97;35.25;96362.66;6123886;23;20450;-84
2022/04/08 06:09:49;;;;;;;0.00;0.00;;;;;;;23.99;33.23;96363.50;6098770;23;20394;-84
2022/04/08 06:12:14;;;;;;;0.17;0.15;;;;;;;23.92;32.80;96368.13;6123859;23;20079;-84
2022/04/08 06:14:40;;;;;;;1.38;0.85;;;;;;;24.15;31.60;96349.47;6097314;23;20015;-83
2022/04/08 06:17:05;;;;;;;0.00;0.00;;;;;;;24.27;32.55;96347.78;6120746;23;20077;-83
2022/04/08 06:19:31;;;;;;;1.05;1.02;;;;;;;25.43;30.96;96343.41;6097753;23;20010;-83
2022/04/08 06:21:57;;;;;;;0.20;0.20;;;;;;;25.02;30.80;96348.38;6096898;23;20092;-83
2022/04/08 06:24:23;;;;;;;0.35;0.35;;;;;;;24.44;32.20;96352.84;6097475;23;20012;-84
2022/04/08 06:26:49;;;;;;;0.00;0.00;;;;;;;24.90;31.65;96355.56;6098313;23;20081;-82
2022/04/08 06:29:14;;;;;;;0.10;0.10;;;;;;;26.23;29.93;96350.19;6121046;23;20376;-84
2022/04/08 06:31:40;;;;;;;0.10;0.10;;;;;;;27.05;28.59;96340.81;6120514;23;20006;-82
2022/04/08 06:34:05;;;;;;;0.75;0.75;;;;;;;26.25;28.84;96357.13;6096517;23;20012;-82
2022/04/08 06:36:32;;;;;;;0.10;0.10;;;;;;;25.83;29.46;96363.28;6120711;23;20022;-82
2022/04/08 06:38:57;;;;;;;0.10;0.10;;;;;;;25.91;29.35;96371.22;6100892;23;20085;-84
2022/04/08 06:41:23;;;;;;;0.10;0.00;;;;;;;25.80;29.46;96369.19;6101255;23;20006;-83
2022/04/08 06:43:49;;;;;;;0.00;0.00;;;;;;;25.22;30.56;96377.41;6096393;23;20010;-83
2022/04/08 06:46:14;;;;;;;0.00;0.00;;;;;;;26.86;28.20;96370.16;6096535;23;20009;-83
2022/04/08 06:48:40;;;;;;;0.10;0.10;;;;;;;27.14;28.23;96373.25;6095663;23;20013;-82
2022/04/08 06:51:05;;;;;;;0.00;0.00;;;;;;;27.15;27.73;96385.09;6096769;23;20010;-83
2022/04/08 06:53:32;;;;;;;0.00;0.00;;;;;;;27.86;27.07;96377.09;6122496;23;20017;-83
2022/04/08 06:55:58;;;;;;;0.30;0.30;;;;;;;27.65;26.81;96369.34;6121279;23;20009;-84
2022/04/08 06:58:26;;;;;;;0.35;0.30;;;;;;;26.70;28.02;96377.00;6096212;23;20081;-83
2022/04/08 07:00:54;;;;;;;0.00;0.00;;;;;;;27.34;27.26;96379.41;6097766;23;20016;-83
2022/04/08 07:03:21;;;;;;;0.82;0.82;;;;;;;27.21;27.31;96373.19;6098819;23;20037;-84
2022/04/08 07:05:47;;;;;;;0.98;0.40;;;;;;;26.25;28.28;96389.19;6096222;23;20013;-78
2022/04/08 07:08:13;;;;;;;0.50;0.45;;;;;;;26.17;28.50;96381.25;6095379;23;20014;-78
2022/04/08 07:10:38;;;;;;;0.22;0.22;;;;;;;24.97;29.98;96391.97;6119928;23;20028;-83
2022/04/08 07:13:08;;;;;;;0.10;0.10;;;;;;;25.95;29.16;96388.94;6097074;23;20016;-83
2022/04/08 07:15:37;;;;;;;0.00;0.00;;;;;;;26.62;27.96;96388.28;6099174;23;20068;-85
2022/04/08 07:18:05;;;;;;;0.00;0.00;;;;;;;26.58;27.95;96395.28;6099176;23;20002;-84
2022/04/08 07:20:31;;;;;;;0.00;0.00;;;;;;;27.07;27.35;96388.13;6099223;23;20013;-84
2022/04/08 07:23:03;;;;;;;0.10;0.10;;;;;;;28.22;26.55;96399.03;6124937;23;20006;-84
2022/04/08 07:25:29;;;;;;;0.00;0.00;;;;;;;27.04;27.20;96383.91;6101835;23;20070;-83
2022/04/08 07:28:01;;;;;;;0.40;0.40;;;;;;;27.18;27.14;96401.97;6101244;23;20081;-83
2022/04/08 07:30:27;;;;;;;0.00;0.00;;;;;;;26.62;28.06;96418.47;6124054;23;20006;-84
2022/04/08 07:32:54;;;;;;;0.00;0.00;;;;;;;27.45;27.16;96413.53;6125378;23;20077;-87
2022/04/08 07:35:21;;;;;;;0.00;0.00;;;;;;;27.96;26.06;96424.94;6126868;23;20454;-84
2022/04/08 07:37:47;;;;;;;1.75;0.32;;;;;;;27.48;26.81;96423.22;6099184;23;20403;-84
2022/04/08 07:40:13;;;;;;;0.00;0.00;;;;;;;26.94;27.25;96416.56;6097851;23;20005;-84
2022/04/08 07:42:39;;;;;;;0.03;0.03;;;;;;;27.36;27.60;96423.94;6097590;23;20002;-83
2022/04/08 07:45:06;;;;;;;0.00;0.00;;;;;;;28.15;27.26;96417.53;6121984;23;20014;-82
2022/04/08 07:47:33;;;;;;;0.30;0.30;;;;;;;27.86;26.12;96407.34;6097412;23;20428;-84
2022/04/08 07:49:59;;;;;;;0.80;0.70;;;;;;;27.84;26.41;96423.22;6096947;23;20476;-84
2022/04/08 07:52:27;;;;;;;0.17;0.17;;;;;;;27.58;26.23;96412.53;6097753;23;20061;-84
2022/04/08 07:54:53;;;;;;;0.10;0.10;;;;;;;28.67;25.02;96401.38;6126697;23;20084;-84
2022/04/08 07:57:22;;;;;;;0.00;0.00;;;;;;;28.46;26.17;96417.31;6100839;23;20010;-84
2022/04/08 07:59:47;;;;;;;0.52;0.28;;;;;;;28.41;26.14;96422.69;6100583;23;20025;-84
2022/04/08 08:02:13;;;;;;;0.20;0.20;;;;;;;28.65;25.05;96417.25;6123232;23;20033;-82
2022/04/08 08:04:39;;;;;;;0.13;0.05;;;;;;;28.08;25.88;96425.06;6124152;23;20015;-84
2022/04/08 08:07:05;;;;;;;0.10;0.10;;;;;;;28.02;26.05;96436.13;6099285;23;20012;-84
2022/04/08 08:09:31;;;;;;;0.00;0.00;;;;;;;28.12;25.82;96431.75;6098761;23;20017;-84
2022/04/08 08:11:56;;;;;;;0.10;0.10;;;;;;;28.00;25.66;96422.59;6097042;23;20101;-85
2022/04/08 08:14:22;;;;;;;0.00;0.00;;;;;;;27.56;26.20;96426.53;6097124;23;20438;-85
2022/04/08 08:16:47;;;;;;;0.90;0.55;;;;;;;28.00;25.73;96422.59;6097382;23;20040;-84
2022/04/08 08:19:14;;;;;;;0.00;0.00;;;;;;;29.53;24.04;96427.16;6096786;23;20331;-83
2022/04/08 08:21:39;;;;;;;0.00;0.00;;;;;;;30.06;23.50;96429.75;6121755;23;20013;-85
2022/04/08 08:24:05;;;;;;;0.30;0.30;;;;;;;30.26;23.03;96434.84;6096240;23;20010;-85
2022/04/08 08:26:31;;;;;;;0.10;0.10;;;;;;;29.29;24.14;96442.03;6096482;23;20574;-85
2022/04/08 08:28:56;;;;;;;0.52;0.52;;;;;;;28.30;25.77;96442.72;6097200;23;20387;-85
2022/04/08 08:31:24;;;;;;;0.20;0.10;;;;;;;28.36;25.53;96449.22;6098964;23;20363;-85
2022/04/08 08:33:50;;;;;;;0.00;0.00;;;;;;;28.23;25.83;96450.25;6097499;23;20063;-84
2022/04/08 08:36:16;;;;;;;0.20;0.20;;;;;;;27.81;25.62;96446.50;6120515;23;20026;-82
2022/04/08 08:38:42;;;;;;;0.55;0.20;;;;;;;28.72;25.26;96462.06;6097776;23;20006;-84
2022/04/08 08:41:08;;;;;;;0.13;0.13;;;;;;;29.20;23.91;96462.72;6097710;23;20006;-84
2022/04/08 08:43:35;;;;;;;0.38;0.38;;;;;;;29.82;23.92;96461.22;6122833;23;20085;-84
2022/04/08 08:46:03;;;;;;;0.00;0.00;;;;;;;29.49;24.01;96459.06;6121553;23;20006;-83
2022/04/08 08:48:31;;;;;;;0.00;0.00;;;;;;;29.73;24.24;96464.56;6096780;23;20009;-83
2022/04/08 08:51:00;;;;;;;0.10;0.10;;;;;;;29.35;24.05;96463.13;6122671;23;20002;-83
2022/04/08 08:53:29;;;;;;;0.13;0.10;;;;;;;28.98;24.55;96458.88;6121930;23;20029;-83
2022/04/08 08:55:55;;;;;;;0.10;0.10;;;;;;;28.82;24.44;96468.69;6121560;23;20095;-83
2022/04/08 08:58:21;;;;;;;0.20;0.20;;;;;;;29.18;24.11;96447.53;6101284;23;20010;-83
2022/04/08 09:00:47;;;;;;;0.00;0.00;;;;;;;30.17;23.65;96463.91;6123751;23;20362;-83
2022/04/08 09:03:13;;;;;;;0.00;0.00;;;;;;;31.50;22.05;96458.66;6102558;23;20033;-82
2022/04/08 09:05:44;;;;;;;0.10;0.10;;;;;;;31.43;22.17;96455.22;6126056;23;20092;-83
2022/04/08 09:08:11;;;;;;;0.03;0.03;;;;;;;31.83;21.34;96443.97;6125088;23;20002;-85
2022/04/08 09:10:39;;;;;;;0.25;0.25;;;;;;;31.43;22.18;96446.09;6099023;23;20501;-83
2022/04/08 09:13:07;;;;;;;0.43;0.30;;;;;;;32.47;20.75;96450.59;6098053;23;20033;-83
2022/04/08 09:15:36;;;;;;;0.00;0.00;;;;;;;31.78;21.60;96445.81;6099755;23;20006;-83
2022/04/08 09:18:10;;;;;;;0.45;0.45;;;;;;;32.21;21.30;96454.16;6124342;23;20433;-83
2022/04/08 09:20:44;;;;;;;0.00;0.00;;;;;;;32.31;21.46;96448.75;6123281;23;20456;-85
2022/04/08 09:23:11;;;;;;;0.10;0.10;;;;;;;33.32;19.92;96441.50;6124136;23;20013;-85
2022/04/08 09:25:38;;;;;;;0.10;0.10;;;;;;;33.79;19.36;96428.53;6124567;23;20006;-83
2022/04/08 09:28:11;;;;;;;0.40;0.38;;;;;;;33.80;19.58;96440.50;6099446;23;20037;-83
2022/04/08 09:30:38;;;;;;;0.00;0.00;;;;;;;32.90;19.93;96435.00;6123288;23;20104;-83
2022/04/08 09:33:16;;;;;;;0.00;0.00;;;;;;;31.69;21.34;96451.78;6098424;23;20005;-83
2022/04/08 09:35:42;;;;;;;3.10;0.47;;;;;;;31.94;20.62;96444.91;6121232;23;20101;-83
2022/04/08 09:38:07;;;;;;;0.10;0.10;;;;;;;33.22;19.52;96433.13;6097702;23;20032;-84
2022/04/08 09:40:40;;;;;;;0.10;0.10;;;;;;;33.76;19.46;96420.75;6096930;23;20010;-83
2022/04/08 09:43:06;;;;;;;0.30;0.30;;;;;;;33.18;19.29;96427.25;6126599;23;20029;-83
2022/04/08 09:45:33;;;;;;;0.88;0.52;;;;;;;34.45;18.75;96423.31;6120682;23;20033;-84
2022/04/08 09:48:03;;;;;;;0.10;0.10;;;;;;;32.55;19.96;96404.97;6121237;23;20009;-85
2022/04/08 09:50:29;;;;;;;0.10;0.10;;;;;;;31.77;20.76;96419.25;6096979;23;20026;-84
2022/04/08 09:52:55;;;;;;;0.10;0.10;;;;;;;32.07;20.33;96419.66;6097168;23;20084;-84
2022/04/08 09:55:22;;;;;;;0.00;0.00;;;;;;;32.51;20.65;96421.31;6097458;23;20034;-84
2022/04/08 09:57:55;;;;;;;0.30;0.30;;;;;;;32.85;19.67;96412.81;6098437;23;20084;-84
2022/04/08 10:00:21;;;;;;;0.30;0.30;;;;;;;32.38;19.81;96410.63;6098792;23;20434;-84
2022/04/08 10:02:48;;;;;;;0.43;0.28;;;;;;;31.96;19.94;96398.47;6122682;23;20091;-84
2022/04/08 10:05:14;;;;;;;0.00;0.00;;;;;;;32.47;19.89;96417.38;6101105;23;20016;-84
2022/04/08 10:07:40;;;;;;;0.17;0.17;;;;;;;33.13;19.64;96399.47;6099697;23;20092;-84
2022/04/08 10:10:21;;;;;;;0.00;0.00;;;;;;;32.55;19.62;96405.81;6122454;23;20009;-84
2022/04/08 10:13:19;;;;;;;0.00;0.00;;;;;;;32.53;19.68;96407.19;6123674;22;20409;-83
2022/04/08 10:16:19;;;;;;;0.00;0.00;;;;;;;33.58;18.88;96406.47;6124223;23;20029;-83
2022/04/08 10:18:46;;;;;;;0.25;0.25;;;;;;;33.40;18.80;96404.97;6126279;23;20067;-84
2022/04/08 10:21:11;;;;;;;0.00;0.00;;;;;;;32.85;19.62;96404.50;6099067;23;20373;-84
2022/04/08 10:23:40;;;;;;;0.80;0.45;;;;;;;31.83;20.20;96409.91;6097484;23;20006;-84
2022/04/08 10:26:15;;;;;;;0.10;0.10;;;;;;;31.31;20.87;96418.56;6121313;23;20002;-83
2022/04/08 10:28:41;;;;;;;0.10;0.10;;;;;;;31.87;20.76;96422.16;6122243;23;20017;-83
2022/04/08 10:31:18;;;;;;;0.03;0.03;;;;;;;32.01;20.11;96399.38;6127736;23;20005;-85
2022/04/08 10:33:55;;;;;;;0.00;0.00;;;;;;;32.22;20.17;96400.47;6098381;23;20006;-85
2022/04/08 10:36:35;;;;;;;0.00;0.00;;;;;;;31.93;20.40;96407.28;6096064;23;20022;-85
2022/04/08 10:39:21;;;;;;;0.00;0.00;;;;;;;32.32;20.54;96405.28;6120513;23;20009;-84
2022/04/08 10:41:51;;;;;;;0.00;0.00;;;;;;;33.54;18.81;96408.09;6119232;23;20017;-84
2022/04/08 10:44:30;;;;;;;0.00;0.00;;;;;;;33.67;19.37;96402.09;6120527;22;20041;-83
2022/04/08 10:46:57;;;;;;;0.30;0.30;;;;;;;33.75;18.54;96398.81;6096002;23;20005;-84
2022/04/08 10:49:23;;;;;;;0.00;0.00;;;;;;;33.44;19.33;96405.28;6093670;23;20354;-85
2022/04/08 10:51:50;;;;;;;0.00;0.00;;;;;;;32.86;20.35;96406.97;6119839;22;20014;-84
2022/04/08 10:54:17;;;;;;;0.10;0.10;;;;;;;32.74;19.53;96411.84;6095017;23;20296;-84
2022/04/08 10:56:42;;;;;;;0.30;0.10;;;;;;;33.55;18.71;96393.97;6119985;23;20092;-85
2022/04/08 10:59:09;;;;;;;1.08;0.35;;;;;;;33.56;18.50;96394.81;6118880;23;19998;-84
2022/04/08 11:01:48;;;;;;;0.00;0.00;;;;;;;33.34;19.23;96385.78;6119441;23;20012;-84
2022/04/08 11:04:18;;;;;;;0.38;0.38;;;;;;;32.93;19.38;96379.06;6121018;23;20467;-84
2022/04/08 11:06:45;;;;;;;0.00;0.00;;;;;;;33.54;18.65;96375.66;6122224;23;20010;-84
2022/04/08 11:09:12;;;;;;;0.10;0.10;;;;;;;33.87;18.31;96391.09;6098266;23;20397;-84
2022/04/08 11:11:39;;;;;;;0.15;0.15;;;;;;;32.15;20.04;96391.53;6097525;23;20010;-84
2022/04/08 11:14:06;;;;;;;0.00;0.00;;;;;;;32.77;19.53;96385.56;6122541;23;20001;-85
2022/04/08 11:16:33;;;;;;;0.05;0.05;;;;;;;32.72;19.44;96394.66;6097811;23;20165;-85
2022/04/08 11:18:59;;;;;;;0.00;0.00;;;;;;;31.43;20.67;96399.09;6099957;23;20006;-82
2022/04/08 11:21:25;;;;;;;0.00;0.00;;;;;;;32.00;19.78;96392.16;6100228;23;20013;-84
2022/04/08 11:24:00;;;;;;;1.95;0.43;;;;;;;34.06;18.10;96389.53;6098683;23;20081;-84
2022/04/08 11:26:28;;;;;;;0.00;0.00;;;;;;;34.87;17.63;96384.25;6125651;23;20002;-85
2022/04/08 11:28:54;;;;;;;0.00;0.00;;;;;;;34.30;18.14;96378.84;6122188;23;20009;-85
2022/04/08 11:31:20;;;;;;;0.10;0.10;;;;;;;34.19;18.64;96386.28;6099867;23;20151;-84
2022/04/08 11:33:47;;;;;;;0.13;0.13;;;;;;;34.73;17.68;96369.22;6096202;23;20044;-85
2022/04/08 11:36:12;;;;;;;0.17;0.17;;;;;;;32.79;19.26;96377.84;6095705;23;20022;-84
2022/04/08 11:38:38;;;;;;;0.00;0.00;;;;;;;34.48;18.03;96378.31;6098295;23;20076;-85
2022/04/08 11:41:04;;;;;;;0.00;0.00;;;;;;;34.96;17.37;96365.06;6122537;23;20030;-86
2022/04/08 11:43:30;;;;;;;0.17;0.17;;;;;;;34.78;17.64;96364.50;6096908;23;20088;-86